Time;durP1;ratioP1;P1;durP2;ratioP2;P2;SDS_P1;SDS_P2;PMS_P1;PMS_P2;Temp;Humidity;BMP_temperature;BMP_pressure;BME280_temperature;BME280_humidity;BME280_pressure;Samples;Min_cycle;Max_cycle;Signal;HPM_P1;HPM_P2
2022/02/14 00:00:41;;;;;;;6.83;4.60;;;;;;;18.04;46.11;96964.00;4861017;29;20302;-89
2022/02/14 00:03:08;;;;;;;6.37;4.30;;;;;;;18.20;46.16;96989.13;4876446;29;20613;-90
2022/02/14 00:05:35;;;;;;;6.50;3.97;;;;;;;17.98;45.95;96956.19;4875895;29;20987;-89
2022/02/14 00:08:02;;;;;;;5.63;4.10;;;;;;;18.21;46.04;96985.75;4875879;29;20264;-89
2022/02/14 00:10:28;;;;;;;5.40;3.77;;;;;;;18.19;46.04;96992.50;4860127;29;20667;-89
2022/02/14 00:12:55;;;;;;;5.23;3.97;;;;;;;17.61;46.34;96887.09;4876055;29;20281;-89
2022/02/14 00:15:22;;;;;;;5.03;4.10;;;;;;;18.14;46.25;96970.25;4875780;29;20289;-89
2022/02/14 00:17:48;;;;;;;4.80;3.93;;;;;;;18.35;46.01;97009.13;4857558;29;20307;-89
2022/02/14 00:20:15;;;;;;;4.07;3.53;;;;;;;18.46;46.51;97020.56;4883369;29;20318;-89
2022/02/14 00:22:42;;;;;;;5.30;4.17;;;;;;;17.66;46.21;96884.72;4879010;29;20245;-89
2022/02/14 00:25:09;;;;;;;5.90;4.13;;;;;;;18.09;46.10;96965.00;4877262;29;20266;-89
2022/02/14 00:27:36;;;;;;;5.93;4.00;;;;;;;18.01;46.19;96941.03;4860553;29;20760;-90
2022/02/14 00:30:03;;;;;;;5.40;4.00;;;;;;;17.94;46.06;96926.38;4875741;29;20668;-90
2022/02/14 00:32:34;;;;;;;6.30;4.07;;;;;;;17.82;45.98;96903.06;4875927;29;20300;-89
2022/02/14 00:35:00;;;;;;;5.10;3.90;;;;;;;17.75;46.26;96903.69;4891304;29;20210;-89
2022/02/14 00:37:27;;;;;;;6.80;4.43;;;;;;;17.68;45.97;96878.84;4875962;29;20226;-89
2022/02/14 00:39:54;;;;;;;4.10;3.60;;;;;;;17.96;46.25;96929.81;4859625;29;20289;-88
2022/02/14 00:42:20;;;;;;;5.40;4.03;;;;;;;17.84;46.35;96911.63;4859900;29;20203;-89
2022/02/14 00:44:47;;;;;;;6.30;3.70;;;;;;;17.74;46.31;96901.94;4860638;29;20654;-89
2022/02/14 00:47:14;;;;;;;5.37;3.87;;;;;;;18.30;46.36;96986.91;4875349;29;20249;-90
2022/02/14 00:49:40;;;;;;;5.07;3.80;;;;;;;17.80;46.37;96907.22;4875083;29;20707;-89
2022/02/14 00:52:07;;;;;;;4.50;3.80;;;;;;;18.36;46.51;96995.59;4875735;29;20285;-89
2022/02/14 01:37:48;;;;;;;4.47;3.73;;;;;;;16.96;46.03;96751.03;5062016;23;20652;-89
2022/02/14 01:40:15;;;;;;;3.80;3.40;;;;;;;16.63;45.93;96674.59;4866728;29;20672;-89
2022/02/14 01:42:42;;;;;;;4.67;3.80;;;;;;;16.29;46.12;96605.75;4866877;29;20226;-89
2022/02/14 01:45:10;;;;;;;4.93;3.90;;;;;;;18.08;46.38;96935.31;4881996;29;20208;-89
2022/02/14 01:47:37;;;;;;;4.77;3.63;;;;;;;15.60;45.97;96489.25;4881879;29;20245;-89
2022/02/14 01:50:04;;;;;;;4.07;3.67;;;;;;;16.33;46.06;96620.25;4881572;29;20206;-89
2022/02/14 01:52:35;;;;;;;4.93;3.90;;;;;;;16.67;45.77;96686.56;4881111;29;20238;-89
2022/02/14 01:55:04;;;;;;;6.37;3.90;;;;;;;16.15;45.55;96577.38;4881654;29;20206;-89
2022/02/14 01:57:31;;;;;;;4.30;3.80;;;;;;;18.59;45.67;96981.13;4863166;29;20685;-90
2022/02/14 01:59:58;;;;;;;4.23;3.77;;;;;;;16.87;45.82;96689.81;4864365;29;20214;-89
2022/02/14 02:02:25;;;;;;;6.47;4.37;;;;;;;16.78;45.52;96671.75;4871271;29;20218;-90
2022/02/14 02:04:52;;;;;;;4.17;3.73;;;;;;;17.54;45.32;96805.53;4854177;29;20210;-89
2022/02/14 02:07:19;;;;;;;4.67;3.53;;;;;;;17.03;45.76;96714.91;4847407;29;20286;-88
2022/02/14 02:09:46;;;;;;;5.00;3.53;;;;;;;15.96;45.57;96521.78;4852517;29;20601;-88
2022/02/14 02:12:28;;;;;;;4.47;3.87;;;;;;;17.27;45.59;96747.06;4865863;29;20740;-88
2022/02/14 02:14:56;;;;;;;5.13;4.00;;;;;;;18.07;46.07;96907.31;4882624;29;20254;-88
2022/02/14 02:17:35;;;;;;;3.73;3.40;;;;;;;15.96;45.59;96520.94;4873879;29;20241;-88
2022/02/14 02:20:03;;;;;;;5.57;3.90;;;;;;;15.66;46.07;96470.06;4867319;29;20250;-88
2022/02/14 02:22:30;;;;;;;5.10;3.90;;;;;;;16.35;45.81;96589.06;4866477;29;20262;-88
2022/02/14 02:24:57;;;;;;;5.10;3.97;;;;;;;17.70;45.62;96838.25;4866240;29;20221;-89
2022/02/14 02:27:27;;;;;;;4.20;3.60;;;;;;;16.37;45.74;96573.91;4866051;29;20285;-89
2022/02/14 02:29:55;;;;;;;4.60;4.03;;;;;;;16.78;45.83;96657.38;4881146;29;20214;-89
2022/02/14 02:32:23;;;;;;;4.83;4.10;;;;;;;16.34;45.80;96586.47;4866090;29;20210;-89
2022/02/14 02:34:49;;;;;;;4.40;3.53;;;;;;;16.15;45.61;96551.16;4865686;29;20709;-89
2022/02/14 02:37:16;;;;;;;4.53;4.03;;;;;;;16.24;45.70;96546.41;4865286;29;20727;-89
2022/02/14 02:39:43;;;;;;;7.00;4.27;;;;;;;17.02;45.59;96673.41;4866043;29;20215;-89
2022/02/14 02:42:11;;;;;;;5.17;3.70;;;;;;;17.05;46.02;96693.81;4864902;29;20215;-90
2022/02/14 02:44:39;;;;;;;5.50;3.90;;;;;;;16.90;45.66;96670.47;4881101;29;20672;-90
2022/02/14 02:47:07;;;;;;;4.37;3.67;;;;;;;16.24;45.77;96536.28;4854330;29;20195;-89
2022/02/14 02:49:34;;;;;;;4.37;3.73;;;;;;;16.43;45.71;96563.97;4846565;29;20211;-90
2022/02/14 02:52:01;;;;;;;4.07;3.40;;;;;;;16.95;45.83;96683.31;4861630;29;20238;-89
2022/02/14 02:54:28;;;;;;;3.80;3.40;;;;;;;15.57;45.66;96420.78;4846701;29;20266;-89
2022/02/14 02:56:55;;;;;;;4.43;4.00;;;;;;;16.47;45.65;96576.00;4846543;29;20227;-89
2022/02/14 02:59:25;;;;;;;4.93;3.90;;;;;;;16.32;45.62;96539.94;4861869;29;20223;-89
2022/02/14 03:01:52;;;;;;;4.57;4.10;;;;;;;18.09;45.63;96837.03;4861903;29;20207;-90
2022/02/14 03:04:19;;;;;;;4.70;4.10;;;;;;;16.59;45.50;96599.22;4861484;29;20223;-89
2022/02/14 03:06:45;;;;;;;3.80;3.50;;;;;;;17.05;45.50;96670.97;4846698;29;20207;-89
2022/02/14 03:38:54;;;;;;;5.33;3.90;;;;;;;18.60;45.46;96903.97;5542191;23;20277;-89
2022/02/14 03:41:21;;;;;;;5.33;4.10;;;;;;;16.05;45.28;96452.84;4876547;29;20219;-89
2022/02/14 03:43:48;;;;;;;3.70;3.40;;;;;;;17.01;45.67;96643.78;4861238;29;20207;-89
2022/02/14 03:46:15;;;;;;;3.80;3.40;;;;;;;18.05;45.34;96804.69;4861604;29;20290;-89
2022/02/14 03:48:42;;;;;;;3.53;3.23;;;;;;;16.24;45.41;96510.94;4861665;29;20239;-88
2022/02/14 03:51:09;;;;;;;4.10;3.37;;;;;;;16.32;45.39;96529.81;4860999;29;20274;-89
2022/02/14 03:53:35;;;;;;;4.10;3.70;;;;;;;17.15;45.33;96651.84;4860796;29;20214;-89
2022/02/14 03:56:04;;;;;;;3.93;3.40;;;;;;;18.15;45.26;96821.97;4860308;29;20203;-89
2022/02/14 03:58:34;;;;;;;4.00;3.60;;;;;;;16.64;45.06;96536.81;4846417;29;20246;-89
2022/02/14 04:01:01;;;;;;;3.97;3.47;;;;;;;16.13;45.35;96456.47;4861144;29;20211;-89
2022/02/14 04:03:28;;;;;;;4.23;3.40;;;;;;;16.00;45.10;96432.41;4860848;29;20282;-89
2022/02/14 04:05:54;;;;;;;4.00;3.13;;;;;;;16.44;45.18;96484.59;4860915;29;20202;-89
2022/02/14 04:08:23;;;;;;;3.77;3.10;;;;;;;16.74;44.90;96521.09;4860793;29;20227;-89
2022/02/14 04:10:52;;;;;;;4.23;3.60;;;;;;;17.22;45.29;96630.91;4861030;29;20207;-89
2022/02/14 04:13:19;;;;;;;3.70;3.33;;;;;;;17.22;44.96;96605.50;4861063;29;20210;-89
2022/02/14 04:15:45;;;;;;;3.60;3.23;;;;;;;16.92;45.22;96552.13;4845313;29;20215;-89
2022/02/14 04:18:12;;;;;;;4.73;3.43;;;;;;;16.89;45.03;96541.00;4860488;29;20227;-89
2022/02/14 04:20:39;;;;;;;4.00;3.37;;;;;;;16.49;45.05;96477.16;4861194;29;20234;-89
2022/02/14 04:23:06;;;;;;;3.63;3.30;;;;;;;15.94;45.29;96380.66;4860556;29;20225;-89
2022/02/14 04:25:33;;;;;;;5.07;3.13;;;;;;;17.04;45.04;96595.66;4861117;29;20222;-89
2022/02/14 04:28:00;;;;;;;4.17;3.17;;;;;;;16.25;45.12;96439.13;4860368;29;20227;-89
2022/02/14 04:30:29;;;;;;;4.03;3.63;;;;;;;16.48;44.98;96518.50;4863847;29;20217;-88
2022/02/14 04:32:59;;;;;;;3.53;3.23;;;;;;;16.25;45.02;96452.69;4869615;29;20218;-89
2022/02/14 04:35:27;;;;;;;3.87;3.47;;;;;;;16.26;45.05;96446.78;4879987;29;20210;-89
2022/02/14 04:37:54;;;;;;;4.03;3.63;;;;;;;17.17;44.97;96587.59;4879344;29;20656;-89
2022/02/14 04:40:22;;;;;;;4.87;3.30;;;;;;;15.68;45.12;96335.88;4863979;29;20768;-89
2022/02/14 04:42:49;;;;;;;3.47;3.17;;;;;;;18.25;45.12;96770.56;4864264;29;20733;-89
2022/02/14 04:45:16;;;;;;;3.43;3.00;;;;;;;15.65;44.91;96328.19;4879622;29;20274;-89
2022/02/14 04:47:43;;;;;;;3.87;3.50;;;;;;;17.21;44.80;96609.75;4879349;29;20222;-89
2022/02/14 04:50:09;;;;;;;3.50;3.20;;;;;;;16.48;45.01;96477.94;4878906;29;20278;-89
2022/02/14 04:52:36;;;;;;;3.67;3.20;;;;;;;15.68;44.90;96330.81;4878939;29;20214;-89
2022/02/14 04:55:03;;;;;;;3.97;3.40;;;;;;;17.95;44.95;96739.13;4879424;29;20210;-89
2022/02/14 04:57:30;;;;;;;4.63;3.83;;;;;;;16.53;44.99;96473.88;4879183;29;20234;-89
2022/02/14 04:59:57;;;;;;;3.43;3.13;;;;;;;16.54;45.40;96481.53;4879213;29;20396;-89
2022/02/14 05:02:24;;;;;;;3.37;3.07;;;;;;;15.59;45.18;96318.72;4864186;29;20247;-89
2022/02/14 05:04:50;;;;;;;3.57;3.27;;;;;;;16.83;45.08;96554.38;4863364;29;20214;-89
2022/02/14 05:07:17;;;;;;;3.93;3.30;;;;;;;16.67;45.09;96521.69;4881995;29;20270;-89
2022/02/14 05:09:44;;;;;;;4.10;3.30;;;;;;;16.20;45.06;96425.47;4868857;29;20720;-89
2022/02/14 05:12:11;;;;;;;3.50;3.20;;;;;;;16.21;44.93;96414.50;4868946;29;20571;-89
2022/02/14 05:14:38;;;;;;;4.00;3.60;;;;;;;18.31;44.98;96805.47;4882659;29;20273;-89
2022/02/14 05:17:05;;;;;;;3.53;3.23;;;;;;;17.21;45.07;96597.06;4867240;29;20624;-89
2022/02/14 05:19:32;;;;;;;3.40;3.10;;;;;;;17.10;45.00;96603.47;4867507;29;20209;-89
2022/02/14 05:21:59;;;;;;;3.20;2.90;;;;;;;16.25;44.94;96418.84;4882397;29;20270;-90
2022/02/14 05:24:26;;;;;;;3.47;3.17;;;;;;;16.08;45.13;96399.72;4881819;29;20210;-89
2022/02/14 05:26:53;;;;;;;3.77;3.47;;;;;;;17.10;45.16;96602.59;4881966;29;20207;-89
2022/02/14 05:29:20;;;;;;;3.60;3.30;;;;;;;18.22;44.85;96795.91;4866894;29;20246;-89
2022/02/14 05:31:47;;;;;;;3.47;2.90;;;;;;;16.96;45.15;96584.38;4881736;29;20218;-89
2022/02/14 05:34:14;;;;;;;3.80;3.40;;;;;;;16.34;44.96;96462.25;4867309;29;20214;-89
2022/02/14 05:36:41;;;;;;;3.63;2.93;;;;;;;16.60;45.13;96473.25;4882442;29;20206;-89
2022/02/14 05:39:11;;;;;;;4.20;3.37;;;;;;;17.10;44.87;96585.69;4867850;29;20657;-89
2022/02/14 05:41:38;;;;;;;4.43;3.47;;;;;;;16.33;45.10;96488.41;4882238;29;20576;-89
2022/02/14 05:44:05;;;;;;;3.83;3.17;;;;;;;17.14;45.05;96594.28;4882011;29;20206;-89
2022/02/14 05:46:32;;;;;;;3.67;3.27;;;;;;;17.18;45.21;96598.63;4866710;29;20255;-89
2022/02/14 05:48:59;;;;;;;3.63;3.33;;;;;;;17.02;45.01;96581.19;4866707;29;20246;-89
2022/02/14 05:51:25;;;;;;;3.13;2.83;;;;;;;16.24;45.18;96418.00;4865691;29;20214;-89
2022/02/14 05:53:52;;;;;;;3.20;2.90;;;;;;;15.79;45.08;96385.25;4866335;29;20206;-89
2022/02/14 05:56:19;;;;;;;3.30;3.00;;;;;;;15.95;45.14;96397.59;4897397;29;20549;-89
2022/02/14 05:58:46;;;;;;;3.53;3.23;;;;;;;16.04;45.10;96401.28;4866477;29;20885;-89
2022/02/14 06:01:12;;;;;;;3.40;3.00;;;;;;;17.15;45.15;96599.41;4866676;29;20201;-90
2022/02/14 06:03:40;;;;;;;3.87;3.20;;;;;;;16.57;44.97;96518.81;4897548;29;20207;-90
2022/02/14 06:06:06;;;;;;;3.40;3.10;;;;;;;17.02;45.33;96584.56;4867154;29;20348;-90
2022/02/14 06:08:33;;;;;;;3.10;2.80;;;;;;;16.63;45.07;96509.72;4881843;29;20281;-90
2022/02/14 06:11:02;;;;;;;3.33;3.03;;;;;;;17.20;45.24;96617.31;4866605;29;20612;-90
2022/02/14 06:13:29;;;;;;;3.50;3.20;;;;;;;17.18;45.22;96580.84;4896975;29;20206;-90
2022/02/14 06:15:56;;;;;;;3.10;2.80;;;;;;;16.84;45.30;96542.56;4878809;29;20303;-90
2022/02/14 06:18:22;;;;;;;3.47;3.17;;;;;;;16.55;44.82;96490.84;4876024;29;20226;-89
2022/02/14 06:20:49;;;;;;;2.97;2.67;;;;;;;16.33;45.18;96447.84;4879039;29;20274;-90
2022/02/14 06:23:16;;;;;;;3.10;2.80;;;;;;;16.63;45.13;96504.66;4870046;29;20250;-90
2022/02/14 06:25:43;;;;;;;3.10;2.80;;;;;;;17.21;44.90;96599.59;4882869;29;20628;-90
2022/02/14 06:28:13;;;;;;;3.40;3.10;;;;;;;17.22;45.11;96605.50;4862841;29;20313;-91
2022/02/14 06:30:42;;;;;;;3.27;2.97;;;;;;;16.08;45.04;96423.38;4880951;29;20305;-91
2022/02/14 06:33:09;;;;;;;3.50;3.03;;;;;;;17.19;45.10;96611.38;4882144;29;20210;-89
2022/02/14 06:35:36;;;;;;;3.20;2.90;;;;;;;17.20;44.92;96610.53;4881416;29;20213;-90
2022/02/14 06:38:02;;;;;;;3.90;3.07;;;;;;;16.49;44.94;96480.53;4865994;29;20254;-89
2022/02/14 06:40:29;;;;;;;4.27;2.97;;;;;;;17.21;44.87;96601.25;4881726;29;20266;-89
2022/02/14 06:42:56;;;;;;;4.90;2.97;;;;;;;17.20;45.14;96599.53;4881572;29;20588;-90
2022/02/14 06:45:22;;;;;;;3.40;3.10;;;;;;;17.13;45.21;96623.88;4896411;29;20704;-91
2022/02/14 06:47:52;;;;;;;3.57;3.00;;;;;;;17.98;45.25;96751.94;4907146;29;20230;-91
2022/02/14 06:50:18;;;;;;;4.90;2.90;;;;;;;18.45;44.98;96822.06;4897051;29;20284;-89
2022/02/14 06:52:45;;;;;;;6.77;2.97;;;;;;;18.42;45.04;96820.31;4900594;29;20213;-92
2022/02/14 06:55:12;;;;;;;2.90;2.70;;;;;;;18.37;45.49;96806.56;4901611;29;20296;-93
2022/02/14 06:57:38;;;;;;;3.50;2.70;;;;;;;18.34;45.27;96801.38;4901508;29;20261;-92
2022/02/14 07:00:08;;;;;;;3.40;2.90;;;;;;;18.54;45.40;96845.25;4900406;29;20289;-91
2022/02/14 07:02:35;;;;;;;7.17;2.90;;;;;;;18.40;45.08;96818.50;4883526;29;20206;-90
2022/02/14 07:05:03;;;;;;;4.73;3.20;;;;;;;18.50;44.20;96839.19;4897591;29;20277;-90
2022/02/14 07:07:31;;;;;;;5.60;4.13;;;;;;;18.53;43.17;96840.97;4881663;29;20244;-90
2022/02/14 07:09:58;;;;;;;4.90;4.40;;;;;;;18.55;41.89;96846.97;4865146;29;20207;-89
2022/02/14 07:12:24;;;;;;;7.90;5.00;;;;;;;18.32;40.56;96808.06;4880585;29;20628;-90
2022/02/14 07:14:52;;;;;;;9.10;5.20;;;;;;;18.52;39.94;96841.78;4865535;29;20207;-88
2022/02/14 07:17:18;;;;;;;6.37;4.93;;;;;;;12.42;40.34;95802.25;4891357;23;20339;-81
2022/02/14 07:19:45;;;;;;;8.37;5.37;;;;;;;15.13;39.89;96271.56;4868645;29;20226;-83
2022/02/14 07:22:12;;;;;;;7.80;4.80;;;;;;;18.64;40.17;96880.31;4880021;29;20258;-80
2022/02/14 07:24:38;;;;;;;8.50;4.63;;;;;;;18.14;40.58;96797.34;4857137;29;20238;-83
2022/02/14 07:27:05;;;;;;;6.63;4.87;;;;;;;18.62;41.31;96879.44;4879486;29;20199;-81
2022/02/14 07:29:32;;;;;;;8.67;5.13;;;;;;;18.07;41.29;96798.84;4863488;29;20231;-83
2022/02/14 07:32:00;;;;;;;6.03;4.90;;;;;;;18.60;41.78;96873.41;4841148;29;20246;-83
2022/02/14 07:34:27;;;;;;;5.70;4.60;;;;;;;18.13;42.58;96799.03;4856547;29;20651;-83
2022/02/14 07:36:53;;;;;;;7.60;4.97;;;;;;;18.39;42.57;96839.69;4873595;29;20271;-82
2022/02/14 07:39:20;;;;;;;5.50;4.57;;;;;;;18.14;42.48;96799.88;4873487;29;20329;-82
2022/02/14 07:41:48;;;;;;;6.80;3.97;;;;;;;16.96;42.55;96629.22;4856245;29;20242;-83
2022/02/14 07:44:14;;;;;;;5.70;3.90;;;;;;;17.68;42.96;96740.81;4858961;29;20580;-82
2022/02/14 07:46:41;;;;;;;5.67;4.00;;;;;;;18.11;43.18;96794.69;4870065;29;20203;-83
2022/02/14 07:49:08;;;;;;;6.03;4.50;;;;;;;18.40;43.16;96838.88;4859314;29;20227;-81
2022/02/14 07:51:34;;;;;;;5.30;3.90;;;;;;;18.60;43.51;96886.16;4873722;29;20733;-85
2022/02/14 07:54:01;;;;;;;5.10;3.97;;;;;;;18.12;43.09;96799.00;4856091;29;20728;-83
2022/02/14 07:56:28;;;;;;;4.70;4.20;;;;;;;17.95;43.76;96777.25;4865905;29;20203;-83
2022/02/14 07:58:58;;;;;;;4.17;3.77;;;;;;;18.00;43.88;96789.28;4859534;29;20710;-84
2022/02/14 08:01:25;;;;;;;4.87;4.07;;;;;;;18.56;43.87;96871.59;4857000;29;20219;-83
2022/02/14 08:03:51;;;;;;;5.83;4.13;;;;;;;18.20;43.86;96803.50;4874162;29;20729;-86
2022/02/14 08:06:29;;;;;;;4.23;3.83;;;;;;;18.18;43.94;96799.19;4859354;29;20225;-86
2022/02/14 08:08:56;;;;;;;5.57;3.83;;;;;;;18.14;44.33;96799.88;4858478;29;20262;-83
2022/02/14 08:11:23;;;;;;;5.53;4.00;;;;;;;18.06;44.06;96783.56;4842647;29;20642;-85
2022/02/14 08:13:49;;;;;;;5.50;3.70;;;;;;;18.08;44.49;96769.19;4854584;29;20215;-84
2022/02/14 08:16:16;;;;;;;5.93;3.93;;;;;;;17.99;44.22;96771.44;4871900;29;20286;-84
2022/02/14 08:18:42;;;;;;;5.40;3.87;;;;;;;18.54;44.26;96863.94;4841182;29;20318;-85
2022/02/14 08:21:09;;;;;;;4.20;3.53;;;;;;;18.14;44.62;96795.66;4857276;29;20293;-84
2022/02/14 08:23:36;;;;;;;4.93;3.83;;;;;;;18.01;44.52;96775.78;4857502;29;20293;-84
2022/02/14 08:26:02;;;;;;;5.47;3.50;;;;;;;18.06;44.40;96801.34;4857265;29;20311;-84
2022/02/14 08:28:29;;;;;;;3.90;3.50;;;;;;;17.85;44.61;96748.13;4842081;29;20310;-84
2022/02/14 08:30:55;;;;;;;4.33;3.80;;;;;;;16.65;44.42;96542.75;4841201;29;20738;-84
2022/02/14 08:33:22;;;;;;;3.67;3.37;;;;;;;17.16;44.47;96629.03;4863163;29;20692;-85
2022/02/14 08:35:49;;;;;;;5.80;3.73;;;;;;;17.15;44.45;96629.88;4856398;29;20633;-84
2022/02/14 08:38:15;;;;;;;3.67;3.30;;;;;;;18.57;44.46;96868.22;4836511;29;20291;-82
2022/02/14 08:40:42;;;;;;;5.40;3.63;;;;;;;18.13;44.27;96800.72;4874717;29;20655;-85
2022/02/14 08:43:09;;;;;;;4.00;3.50;;;;;;;16.98;44.25;96586.97;4862608;29;20647;-87
2022/02/14 08:45:55;;;;;;;3.47;3.17;;;;;;;17.93;44.69;96756.88;4864218;29;20211;-84
2022/02/14 08:48:22;;;;;;;4.30;3.70;;;;;;;17.86;44.50;96738.84;4861108;29;20562;-85
2022/02/14 08:50:49;;;;;;;4.23;3.60;;;;;;;18.01;44.42;96782.53;4847540;29;20630;-85
2022/02/14 08:53:17;;;;;;;4.73;3.50;;;;;;;17.82;45.15;96727.72;4865088;29;20235;-85
2022/02/14 08:55:44;;;;;;;4.23;3.43;;;;;;;16.84;45.17;96551.00;4863514;29;20235;-85
2022/02/14 08:58:10;;;;;;;4.07;3.57;;;;;;;17.76;44.87;96722.44;4846481;29;20740;-84
2022/02/14 09:00:37;;;;;;;4.97;3.60;;;;;;;17.26;45.18;96622.59;4860821;29;20306;-85
2022/02/14 09:03:05;;;;;;;7.37;3.83;;;;;;;18.60;45.28;96835.25;4846556;29;20217;-83
2022/02/14 09:05:32;;;;;;;5.53;3.60;;;;;;;18.59;45.47;96841.16;4864265;29;20259;-85
2022/02/14 09:07:59;;;;;;;4.23;3.70;;;;;;;18.09;45.51;96750.59;4880244;29;20302;-84
2022/02/14 09:10:26;;;;;;;6.07;3.70;;;;;;;18.06;45.34;96746.25;4849359;29;20211;-87
2022/02/14 09:12:52;;;;;;;5.60;3.67;;;;;;;18.08;45.48;96738.66;4860170;29;20242;-87
2022/02/14 09:15:19;;;;;;;5.70;3.50;;;;;;;17.22;45.41;96608.94;4866080;29;20228;-85
2022/02/14 09:17:45;;;;;;;7.07;3.90;;;;;;;18.16;45.22;96749.94;4859709;29;20247;-84
2022/02/14 09:20:12;;;;;;;3.83;3.30;;;;;;;17.91;45.25;96722.03;4879316;29;20203;-87
2022/02/14 09:22:42;;;;;;;5.37;3.50;;;;;;;17.71;45.71;96685.84;4863415;29;20218;-85
2022/02/14 09:25:11;;;;;;;4.30;3.47;;;;;;;17.19;45.50;96588.53;4865270;29;20282;-84
2022/02/14 09:27:39;;;;;;;5.67;3.83;;;;;;;17.42;45.75;96632.41;4864566;29;20701;-86
2022/02/14 09:30:06;;;;;;;5.37;3.67;;;;;;;18.12;46.35;96774.41;4849352;29;20209;-85
2022/02/14 09:32:33;;;;;;;5.23;3.57;;;;;;;17.27;45.94;96604.88;4863747;29;20239;-84
2022/02/14 09:34:59;;;;;;;5.47;4.00;;;;;;;17.73;45.65;96685.91;4848644;29;20206;-85
2022/02/14 09:37:26;;;;;;;9.70;4.17;;;;;;;18.20;45.39;96765.34;4863882;29;20261;-85
2022/02/14 09:39:59;;;;;;;9.90;4.70;;;;;;;18.27;45.23;96774.88;4847379;29;20994;-85
2022/02/14 09:42:25;;;;;;;6.30;4.30;;;;;;;17.99;45.29;96721.47;4854680;29;20306;-85
2022/02/14 09:44:53;;;;;;;6.00;4.23;;;;;;;17.96;44.68;96715.44;4861438;29;20211;-86
2022/02/14 09:47:23;;;;;;;7.97;4.60;;;;;;;17.66;45.18;96694.16;4874237;29;20213;-85
2022/02/14 09:49:50;;;;;;;6.27;3.87;;;;;;;17.92;45.57;96721.25;4855910;29;20677;-85
2022/02/14 09:52:17;;;;;;;7.07;4.40;;;;;;;16.86;45.51;96531.63;4859197;29;20234;-86
2022/02/14 09:54:44;;;;;;;8.93;4.67;;;;;;;18.58;45.75;96867.41;4843861;29;20294;-85
2022/02/14 09:57:12;;;;;;;7.73;4.47;;;;;;;18.23;46.28;96759.47;4842975;29;20242;-86
2022/02/14 09:59:41;;;;;;;7.03;4.33;;;;;;;17.85;45.91;96693.91;4859112;29;20727;-85
2022/02/14 10:02:23;;;;;;;8.10;4.57;;;;;;;18.25;45.75;96757.84;4859444;29;20251;-83
2022/02/14 10:05:10;;;;;;;10.43;4.13;;;;;;;18.64;45.97;96830.28;4844272;29;20272;-86
2022/02/14 10:07:41;;;;;;;11.33;4.83;;;;;;;18.04;46.07;96729.25;4873174;29;20270;-83
2022/02/14 10:10:21;;;;;;;10.53;4.70;;;;;;;18.22;46.12;96765.38;4848440;29;20423;-86
2022/02/14 10:12:51;;;;;;;10.83;4.23;;;;;;;18.20;46.33;96756.84;4849486;29;20298;-86
2022/02/14 10:15:18;;;;;;;9.37;4.40;;;;;;;17.85;46.31;96704.94;4858933;29;20294;-86
2022/02/14 10:17:46;;;;;;;18.63;4.63;;;;;;;18.01;46.68;96711.34;4858797;29;20670;-85
2022/02/14 10:20:15;;;;;;;19.73;5.20;;;;;;;17.21;46.47;96581.81;4873776;29;20230;-86
2022/02/14 10:23:03;;;;;;;8.37;3.93;;;;;;;17.67;46.49;96656.09;4843372;29;20203;-83
2022/02/14 10:25:34;;;;;;;7.30;4.37;;;;;;;18.11;46.93;96726.06;4843281;29;20219;-85
2022/02/14 10:28:23;;;;;;;15.77;5.47;;;;;;;18.66;46.66;96817.63;4858781;29;20255;-85
2022/02/14 10:31:06;;;;;;;12.43;4.57;;;;;;;17.92;46.80;96686.50;4858383;29;20221;-85
2022/02/14 10:33:48;;;;;;;11.80;4.10;;;;;;;18.10;46.66;96717.59;4858066;29;20225;-86
2022/02/14 10:36:24;;;;;;;9.00;4.37;;;;;;;18.67;46.80;96811.69;4853172;29;20795;-86
2022/02/14 10:38:51;;;;;;;9.57;4.63;;;;;;;18.12;46.41;96715.09;4871329;29;20230;-86
2022/02/14 10:41:17;;;;;;;8.77;4.97;;;;;;;18.66;46.81;96808.31;4872459;29;20295;-85
2022/02/14 10:43:44;;;;;;;8.70;4.57;;;;;;;18.32;46.14;96747.03;4858280;29;20238;-83
2022/02/14 10:46:22;;;;;;;12.07;4.83;;;;;;;18.02;46.90;96702.91;4842778;29;20203;-84
2022/02/14 10:48:54;;;;;;;10.23;4.77;;;;;;;17.87;46.35;96664.31;4842944;29;20310;-86
2022/02/14 10:51:23;;;;;;;7.57;5.13;;;;;;;18.01;46.59;96684.25;4857793;29;20238;-85
2022/02/14 10:53:51;;;;;;;11.87;4.73;;;;;;;18.04;46.71;96679.28;4858144;29;20311;-86
2022/02/14 10:56:19;;;;;;;13.10;5.17;;;;;;;18.16;46.65;96689.78;4858333;29;20615;-86
2022/02/14 10:58:47;;;;;;;10.23;5.40;;;;;;;18.50;46.68;96769.66;4873935;29;20227;-86
2022/02/14 11:01:14;;;;;;;9.77;4.80;;;;;;;17.89;46.64;96662.69;4858505;29;20285;-86
2022/02/14 11:03:44;;;;;;;11.40;5.30;;;;;;;18.44;46.70;96734.69;4858431;29;20360;-86
2022/02/14 11:06:11;;;;;;;8.80;5.00;;;;;;;17.78;46.54;96623.38;4840504;29;20635;-86
2022/02/14 11:08:38;;;;;;;7.00;4.53;;;;;;;16.96;46.46;96482.88;4858934;29;20318;-85
2022/02/14 11:11:08;;;;;;;9.30;4.83;;;;;;;17.45;46.66;96554.66;4842968;29;20214;-83
2022/02/14 11:13:35;;;;;;;10.10;5.10;;;;;;;18.00;46.52;96643.53;4846332;29;20207;-86
2022/02/14 11:16:02;;;;;;;9.17;4.83;;;;;;;18.23;46.57;96688.28;4857071;29;20243;-85
2022/02/14 11:18:31;;;;;;;11.10;5.37;;;;;;;18.70;46.46;96781.25;4846272;29;20321;-85
2022/02/14 11:21:05;;;;;;;8.57;4.77;;;;;;;18.09;46.39;96654.81;4844503;29;20203;-86
2022/02/14 11:23:56;;;;;;;8.10;4.43;;;;;;;18.70;46.32;96754.13;4847684;29;20203;-85
2022/02/14 11:26:28;;;;;;;8.57;4.50;;;;;;;18.71;45.95;96750.75;4862818;29;20581;-86
2022/02/14 11:29:14;;;;;;;8.40;5.03;;;;;;;18.31;46.16;96676.66;4861806;29;20222;-85
2022/02/14 11:31:41;;;;;;;9.77;4.93;;;;;;;18.17;46.59;96653.38;4876953;29;20241;-85
2022/02/14 11:34:07;;;;;;;9.20;4.67;;;;;;;17.91;46.26;96616.16;4861661;29;20203;-84
2022/02/14 11:36:37;;;;;;;11.20;4.67;;;;;;;18.08;46.35;96632.75;4861096;29;20238;-85
2022/02/14 11:39:05;;;;;;;10.30;4.90;;;;;;;18.14;46.36;96630.41;4862609;29;20262;-85
2022/02/14 11:41:41;;;;;;;8.97;4.57;;;;;;;18.71;46.24;96720.22;4862603;29;20231;-87
2022/02/14 11:44:17;;;;;;;8.47;4.57;;;;;;;18.73;46.11;96727.88;4878003;29;20183;-86
2022/02/14 11:46:53;;;;;;;13.73;5.13;;;;;;;18.25;45.84;96645.94;4878106;29;20217;-86
2022/02/14 11:49:23;;;;;;;9.00;4.53;;;;;;;18.72;45.51;96713.44;4877291;29;20594;-85
2022/02/14 11:52:24;;;;;;;8.57;3.97;;;;;;;18.72;45.75;96710.91;4878114;29;20209;-86
2022/02/14 11:54:51;;;;;;;9.77;4.63;;;;;;;18.11;45.88;96604.88;4878026;29;20267;-83
2022/02/14 11:57:45;;;;;;;6.40;4.67;;;;;;;18.72;45.90;96706.69;4847443;29;20242;-83
2022/02/14 12:00:12;;;;;;;9.30;4.80;;;;;;;18.73;45.78;96712.63;4878117;29;20211;-84
2022/02/14 12:26:51;;;;;;;11.70;5.17;;;;;;;18.08;45.08;96568.34;4888486;29;20229;-86
2022/02/14 12:29:35;;;;;;;7.73;4.73;;;;;;;18.05;45.50;96563.16;4867595;29;20223;-86
2022/02/14 12:32:23;;;;;;;8.23;5.10;;;;;;;18.72;44.88;96688.88;4877811;29;20680;-86
2022/02/14 12:34:50;;;;;;;5.37;4.30;;;;;;;18.07;45.33;96559.00;4894470;29;20257;-87
2022/02/14 12:37:17;;;;;;;5.60;4.50;;;;;;;17.77;45.28;96505.63;4889870;29;20259;-85
2022/02/14 12:39:45;;;;;;;6.80;4.47;;;;;;;18.54;44.97;96639.16;4864700;29;20340;-84
2022/02/14 12:42:19;;;;;;;5.07;4.50;;;;;;;18.74;45.28;96676.19;4880277;29;20202;-86
2022/02/14 12:44:49;;;;;;;6.63;4.53;;;;;;;18.74;45.23;96666.84;4895864;29;20246;-87
2022/02/14 12:47:16;;;;;;;6.33;4.10;;;;;;;16.87;45.55;96348.13;4864975;29;20214;-86
2022/02/14 12:50:03;;;;;;;6.67;4.60;;;;;;;18.76;45.48;96649.06;4866578;29;20187;-86
2022/02/14 12:52:30;;;;;;;5.23;4.13;;;;;;;17.92;45.25;96508.56;4895048;29;20233;-86
2022/02/14 12:54:58;;;;;;;5.67;4.37;;;;;;;18.14;45.31;96540.53;4864701;29;20237;-87
2022/02/14 12:57:46;;;;;;;5.17;3.87;;;;;;;18.43;45.13;96607.47;4863956;29;20238;-85
2022/02/14 13:00:22;;;;;;;6.63;4.00;;;;;;;18.27;45.56;96583.28;4880047;29;20245;-87
2022/02/14 13:03:01;;;;;;;6.90;4.47;;;;;;;18.75;45.23;96639.72;4895176;29;20230;-86
2022/02/14 13:05:31;;;;;;;4.90;3.90;;;;;;;18.10;45.06;96523.50;4894677;29;20277;-83
2022/02/14 13:08:00;;;;;;;8.60;4.50;;;;;;;17.29;45.39;96379.78;4879964;29;20282;-85
2022/02/14 13:10:27;;;;;;;5.77;4.00;;;;;;;17.68;45.05;96441.00;4861367;29;20737;-85
2022/02/14 13:13:03;;;;;;;7.03;4.17;;;;;;;18.04;45.28;96508.06;4860757;29;20293;-86
2022/02/14 13:15:31;;;;;;;5.97;4.10;;;;;;;17.51;44.96;96457.47;4865198;29;20301;-86